Time;durP1;ratioP1;P1;durP2;ratioP2;P2;SDS_P1;SDS_P2;PMS_P1;PMS_P2;Temp;Humidity;BMP_temperature;BMP_pressure;BME280_temperature;BME280_humidity;BME280_pressure;Samples;Min_cycle;Max_cycle;Signal;HPM_P1;HPM_P2
2023/01/24 00:01:09;;;;;;;18.05;10.70;;;;;;;4.03;67.82;99309.94;5068539;28;20031;-67
2023/01/24 00:03:36;;;;;;;15.48;10.40;;;;;;;4.11;68.54;99318.09;5089097;27;20495;-68
2023/01/24 00:06:01;;;;;;;18.63;10.35;;;;;;;4.13;69.02;99318.81;5083943;28;20152;-68
2023/01/24 00:08:27;;;;;;;17.70;9.95;;;;;;;4.12;68.10;99313.75;5105781;27;20061;-68
2023/01/24 00:11:06;;;;;;;17.63;10.65;;;;;;;4.00;68.08;99316.09;5081057;28;20129;-69
2023/01/24 00:13:33;;;;;;;17.63;11.38;;;;;;;4.03;68.62;99321.09;5081040;28;20080;-66
2023/01/24 00:16:11;;;;;;;16.23;10.20;;;;;;;4.08;68.51;99327.72;5059579;28;20046;-66
2023/01/24 00:18:39;;;;;;;17.55;10.55;;;;;;;4.12;68.49;99331.78;5065576;28;20027;-69
2023/01/24 00:21:09;;;;;;;19.98;10.43;;;;;;;4.05;68.46;99333.84;5064530;28;20035;-66
2023/01/24 00:23:37;;;;;;;16.58;10.00;;;;;;;4.06;68.93;99339.84;5066790;28;20386;-67
2023/01/24 00:26:03;;;;;;;14.10;9.25;;;;;;;4.03;68.02;99328.81;5091994;28;20031;-66
2023/01/24 00:28:30;;;;;;;14.80;9.02;;;;;;;4.06;68.42;99337.28;5085814;28;20031;-67
2023/01/24 00:30:55;;;;;;;15.13;9.68;;;;;;;4.08;67.39;99328.53;5068862;28;20068;-67
2023/01/24 00:33:21;;;;;;;17.20;10.02;;;;;;;3.73;67.53;99271.34;5058690;28;20115;-69
2023/01/24 00:35:50;;;;;;;17.88;9.55;;;;;;;4.18;66.84;99336.56;5087776;28;20055;-67
2023/01/24 00:38:16;;;;;;;15.23;9.85;;;;;;;4.22;67.67;99330.34;5087932;28;20098;-67
2023/01/24 00:40:41;;;;;;;18.23;9.35;;;;;;;4.07;68.53;99331.19;5110034;28;20116;-66
2023/01/24 00:43:07;;;;;;;16.92;9.85;;;;;;;3.78;68.35;99300.22;5086507;28;20066;-69
2023/01/24 00:45:36;;;;;;;15.80;10.02;;;;;;;4.03;68.31;99341.69;5066499;28;20047;-67
2023/01/24 00:48:02;;;;;;;16.95;9.13;;;;;;;4.08;67.81;99343.97;5085900;28;20024;-66
2023/01/24 00:50:27;;;;;;;16.48;10.10;;;;;;;3.98;68.31;99340.25;5080124;28;20035;-66
2023/01/24 00:52:54;;;;;;;17.45;9.70;;;;;;;4.03;69.98;99351.13;5080636;28;20067;-68
2023/01/24 00:55:19;;;;;;;15.45;9.15;;;;;;;4.04;69.52;99356.19;5100186;28;20096;-67
2023/01/24 00:57:45;;;;;;;15.10;9.40;;;;;;;3.99;69.40;99355.59;5066949;28;20024;-67
2023/01/24 01:00:12;;;;;;;13.02;8.68;;;;;;;3.99;69.28;99349.66;5065183;28;20450;-66
2023/01/24 01:02:37;;;;;;;15.20;8.93;;;;;;;3.97;69.71;99354.88;5082579;28;20046;-67
2023/01/24 01:05:04;;;;;;;13.48;8.35;;;;;;;3.97;70.06;99356.63;5104968;28;20032;-67
2023/01/24 01:07:29;;;;;;;15.23;8.50;;;;;;;3.57;70.84;99308.16;5060203;28;20024;-68
2023/01/24 01:09:55;;;;;;;13.57;8.55;;;;;;;3.83;70.65;99360.78;5107204;27;20091;-69
2023/01/24 01:12:21;;;;;;;15.55;9.30;;;;;;;3.88;70.60;99368.25;5068160;27;20022;-69
2023/01/24 01:14:46;;;;;;;14.05;8.50;;;;;;;3.77;70.89;99365.44;5072971;27;20023;-66
2023/01/24 01:17:13;;;;;;;14.77;8.90;;;;;;;3.49;71.54;99379.78;5071126;28;20341;-67
2023/01/24 01:19:38;;;;;;;13.80;9.70;;;;;;;3.57;71.57;99385.31;5083881;28;20020;-68
2023/01/24 01:22:04;;;;;;;16.27;10.05;;;;;;;3.63;71.81;99382.44;5095263;27;20027;-68
2023/01/24 01:24:29;;;;;;;13.50;8.85;;;;;;;3.33;72.85;99391.75;5068218;28;20408;-68
2023/01/24 01:26:55;;;;;;;14.77;8.65;;;;;;;3.49;72.55;99394.34;5112300;27;20031;-68
2023/01/24 01:29:20;;;;;;;16.05;9.20;;;;;;;3.50;73.61;99375.44;5067084;28;20023;-67
2023/01/24 01:31:47;;;;;;;14.70;8.70;;;;;;;3.45;74.47;99397.09;5079223;27;20106;-67
2023/01/24 01:34:12;;;;;;;13.93;8.45;;;;;;;3.32;74.01;99393.47;5087514;28;20474;-68
2023/01/24 01:36:38;;;;;;;16.00;8.50;;;;;;;3.08;74.60;99347.63;5089263;27;20030;-67
2023/01/24 01:39:03;;;;;;;14.70;8.45;;;;;;;3.34;74.41;99385.69;5109914;27;20039;-69
2023/01/24 01:41:29;;;;;;;15.40;8.48;;;;;;;3.47;74.69;99402.16;5068085;28;20028;-67
2023/01/24 01:46:48;;;;;;;13.50;8.82;;;;;;;3.74;77.12;99399.88;5106050;27;20041;-68
2023/01/24 01:49:19;;;;;;;16.98;8.48;;;;;;;3.59;77.16;99401.50;5073882;28;20027;-67
2023/01/24 01:51:50;;;;;;;13.65;8.95;;;;;;;3.39;79.10;99399.97;5093812;27;20019;-66
2023/01/24 01:54:29;;;;;;;11.85;7.45;;;;;;;3.45;79.10;99399.66;5073621;27;20561;-67
2023/01/24 01:57:08;;;;;;;12.35;7.88;;;;;;;3.56;78.73;99393.13;5081359;28;20036;-67
2023/01/24 01:59:39;;;;;;;13.35;7.57;;;;;;;3.62;79.35;99397.94;5069343;28;20040;-68
2023/01/24 02:02:06;;;;;;;13.32;7.25;;;;;;;3.73;79.68;99394.81;5070460;28;20164;-68
2023/01/24 02:04:35;;;;;;;13.20;8.02;;;;;;;3.73;79.86;99402.53;5073094;27;20036;-67
2023/01/24 02:07:20;;;;;;;11.30;6.93;;;;;;;3.77;80.46;99404.84;5082645;27;20031;-67
2023/01/24 02:09:49;;;;;;;13.77;7.45;;;;;;;3.74;80.75;99393.88;5072005;27;20059;-67
2023/01/24 02:12:24;;;;;;;12.85;7.07;;;;;;;3.88;79.76;99399.13;5074906;28;20122;-69
2023/01/24 02:17:40;;;;;;;11.10;7.45;;;;;;;4.02;78.79;99414.63;5089385;28;20088;-67
2023/01/24 02:20:20;;;;;;;12.98;7.80;;;;;;;4.02;80.53;99416.41;5087194;28;20183;-67
2023/01/24 02:23:15;;;;;;;11.55;6.97;;;;;;;4.00;80.46;99419.03;5084718;27;20061;-68
2023/01/24 02:25:58;;;;;;;10.82;6.65;;;;;;;4.00;80.49;99413.06;5073958;28;20943;-67
2023/01/24 02:28:24;;;;;;;13.35;6.82;;;;;;;3.92;80.57;99405.75;5066342;28;20465;-67
2023/01/24 02:30:49;;;;;;;12.23;7.55;;;;;;;3.85;80.46;99396.69;5097126;27;20059;-67
2023/01/24 02:33:19;;;;;;;14.10;7.20;;;;;;;3.98;80.52;99410.59;5101730;28;20027;-66
2023/01/24 02:35:46;;;;;;;10.63;6.72;;;;;;;4.11;81.64;99420.22;5065916;28;20019;-67
2023/01/24 02:38:21;;;;;;;9.88;6.35;;;;;;;4.13;80.54;99432.06;5069535;27;20508;-69
2023/01/24 02:40:49;;;;;;;12.10;6.95;;;;;;;4.09;81.11;99428.00;5076896;28;20031;-68
2023/01/24 02:43:16;;;;;;;13.95;6.55;;;;;;;4.00;81.14;99429.34;5066572;28;20044;-66
2023/01/24 02:45:42;;;;;;;11.18;6.50;;;;;;;3.88;81.45;99429.16;5089491;27;20042;-68
2023/01/24 02:48:07;;;;;;;12.02;7.07;;;;;;;3.87;81.37;99427.50;5076049;28;20024;-67
2023/01/24 02:53:31;;;;;;;11.98;7.15;;;;;;;3.99;80.52;99450.00;5090142;27;20034;-66
2023/01/24 02:58:47;;;;;;;12.02;7.15;;;;;;;3.71;79.64;99394.06;5085534;27;20038;-66
2023/01/24 03:01:16;;;;;;;13.57;7.00;;;;;;;4.04;79.78;99443.69;5084369;28;20031;-66
2023/01/24 03:03:43;;;;;;;13.32;7.47;;;;;;;3.95;80.51;99431.31;5060914;27;20054;-67
2023/01/24 03:06:10;;;;;;;9.93;6.00;;;;;;;4.10;79.92;99436.56;5083551;28;20085;-66
2023/01/24 03:08:36;;;;;;;10.00;6.40;;;;;;;3.56;79.54;99357.97;5070366;28;20027;-66
2023/01/24 03:11:03;;;;;;;11.30;6.47;;;;;;;3.95;79.85;99415.06;5067215;28;20046;-67
2023/01/24 03:35:24;;;;;;;11.82;6.93;;;;;;;4.06;83.16;99451.34;5089629;27;20505;-66
2023/01/24 03:40:34;;;;;;;13.05;6.32;;;;;;;3.92;84.01;99446.91;5082910;28;20827;-68
2023/01/24 03:42:59;;;;;;;12.27;6.72;;;;;;;3.80;84.48;99427.84;5066959;28;20047;-66
2023/01/24 03:45:31;;;;;;;10.10;6.30;;;;;;;4.12;84.65;99452.75;5081751;27;20050;-65
2023/01/24 03:47:59;;;;;;;10.23;6.80;;;;;;;4.09;83.94;99456.31;5068773;28;20028;-66
2023/01/24 03:53:22;;;;;;;11.70;7.20;;;;;;;4.09;84.32;99456.31;5083089;28;20066;-67
2023/01/24 03:55:53;;;;;;;12.18;6.47;;;;;;;4.19;83.62;99456.66;5059201;28;20151;-70
2023/01/24 03:58:18;;;;;;;9.75;5.38;;;;;;;4.26;80.08;99450.25;5068651;27;20040;-67
2023/01/24 04:00:44;;;;;;;9.43;5.55;;;;;;;4.35;79.11;99465.19;5082859;28;20121;-66
2023/01/24 04:03:09;;;;;;;8.95;5.60;;;;;;;4.25;80.83;99461.44;5068934;28;20031;-66
2023/01/24 04:05:35;;;;;;;10.13;5.80;;;;;;;4.47;80.05;99458.53;5085911;28;20888;-67
2023/01/24 04:08:02;;;;;;;7.97;5.10;;;;;;;4.51;81.69;99461.75;5067817;28;20647;-67
2023/01/24 04:10:28;;;;;;;8.75;5.35;;;;;;;4.15;80.97;99416.56;5072541;28;20054;-67
2023/01/24 04:12:55;;;;;;;10.82;5.35;;;;;;;4.31;80.42;99443.13;5064615;28;20036;-68
2023/01/24 04:15:28;;;;;;;9.48;5.38;;;;;;;4.35;80.63;99462.63;5069590;28;20047;-66
2023/01/24 04:17:58;;;;;;;10.60;5.72;;;;;;;4.34;80.68;99460.13;5073178;28;20034;-67
2023/01/24 04:20:25;;;;;;;11.52;5.53;;;;;;;4.36;80.84;99472.03;5067894;28;20025;-67
2023/01/24 04:22:51;;;;;;;8.73;4.88;;;;;;;4.26;82.31;99465.69;5083975;28;20024;-67
2023/01/24 04:25:16;;;;;;;9.50;5.32;;;;;;;4.06;83.22;99437.66;5099571;28;20760;-67
2023/01/24 04:27:42;;;;;;;9.13;4.50;;;;;;;4.18;83.31;99460.13;5084379;28;20024;-67
2023/01/24 04:30:10;;;;;;;10.50;5.35;;;;;;;4.32;83.22;99473.06;5102199;28;20031;-66
2023/01/24 04:32:36;;;;;;;9.70;4.93;;;;;;;4.29;83.19;99475.00;5081947;28;20031;-67
2023/01/24 04:35:03;;;;;;;9.48;5.32;;;;;;;4.14;82.82;99456.06;5068129;28;20027;-67
2023/01/24 04:37:29;;;;;;;8.98;5.05;;;;;;;4.27;81.80;99469.09;5063062;28;20449;-67
2023/01/24 04:39:55;;;;;;;8.73;4.78;;;;;;;4.21;82.13;99465.94;5088705;28;20032;-66
2023/01/24 04:42:20;;;;;;;10.05;5.25;;;;;;;4.37;80.99;99478.81;5107356;28;20106;-66
2023/01/24 04:44:46;;;;;;;10.07;5.35;;;;;;;4.34;81.21;99483.28;5092713;27;20011;-68
2023/01/24 04:47:11;;;;;;;10.43;5.55;;;;;;;4.40;80.10;99485.56;5088194;27;20028;-67
2023/01/24 04:49:37;;;;;;;10.80;5.72;;;;;;;4.40;80.67;99490.72;5089698;28;20076;-66
2023/01/24 04:52:02;;;;;;;8.43;5.18;;;;;;;4.39;80.52;99491.59;5083709;27;20196;-67
2023/01/24 04:54:28;;;;;;;9.38;4.90;;;;;;;4.40;80.36;99494.09;5090634;28;20164;-66
2023/01/24 04:56:53;;;;;;;9.18;5.53;;;;;;;4.24;80.64;99477.84;5090868;27;20036;-67
2023/01/24 04:59:19;;;;;;;9.43;4.88;;;;;;;4.46;78.86;99503.25;5095701;28;20034;-68
2023/01/24 05:01:44;;;;;;;9.35;5.07;;;;;;;4.52;78.44;99502.06;5104847;27;20024;-67
2023/01/24 05:04:10;;;;;;;10.27;5.35;;;;;;;4.32;78.65;99475.66;5093974;28;20027;-66
2023/01/24 05:06:35;;;;;;;9.48;5.28;;;;;;;4.07;78.51;99444.44;5074180;28;20054;-65
2023/01/24 05:09:02;;;;;;;8.05;4.97;;;;;;;4.35;78.28;99492.69;5082694;28;20713;-67
2023/01/24 05:11:27;;;;;;;8.57;4.80;;;;;;;4.38;78.28;99501.09;5068616;28;20080;-66
2023/01/24 05:13:52;;;;;;;8.20;4.82;;;;;;;4.43;77.80;99506.81;5084580;28;20024;-66
2023/01/24 05:16:18;;;;;;;8.68;4.82;;;;;;;4.56;78.11;99508.69;5083512;28;20795;-66
2023/01/24 05:18:44;;;;;;;8.18;4.82;;;;;;;4.50;77.42;99501.31;5087783;27;20135;-65
2023/01/24 05:21:14;;;;;;;8.50;4.57;;;;;;;4.47;77.87;99511.78;5088425;28;20553;-66
2023/01/24 05:23:40;;;;;;;9.13;4.40;;;;;;;4.12;77.78;99476.72;5066705;28;20024;-66
2023/01/24 05:26:06;;;;;;;7.45;4.05;;;;;;;4.40;77.73;99509.56;5083868;28;20083;-65
2023/01/24 05:28:31;;;;;;;7.72;4.22;;;;;;;4.47;77.29;99509.22;5092614;28;20034;-66
2023/01/24 05:31:04;;;;;;;10.30;4.82;;;;;;;4.29;77.43;99472.41;5087858;28;20110;-66
2023/01/24 05:33:30;;;;;;;8.88;5.35;;;;;;;4.53;78.70;99522.59;5061637;27;20073;-65
2023/01/24 05:36:04;;;;;;;8.02;4.63;;;;;;;4.46;78.56;99517.88;5071175;28;20163;-67
2023/01/24 05:38:30;;;;;;;7.85;4.15;;;;;;;4.40;79.64;99509.56;5069725;28;20051;-67
2023/01/24 05:41:07;;;;;;;8.55;4.45;;;;;;;4.46;81.03;99510.13;5070715;28;20393;-68
2023/01/24 05:43:33;;;;;;;7.53;4.25;;;;;;;4.42;83.02;99507.72;5088469;27;20019;-66
2023/01/24 05:45:59;;;;;;;8.40;4.55;;;;;;;4.43;83.07;99509.41;5091170;28;20768;-66
2023/01/24 05:48:25;;;;;;;13.10;5.07;;;;;;;4.03;82.72;99461.78;5084520;28;20061;-69
2023/01/24 05:50:56;;;;;;;12.02;4.85;;;;;;;4.26;82.85;99506.06;5075497;28;20118;-65
2023/01/24 05:53:22;;;;;;;8.07;4.57;;;;;;;4.27;83.22;99510.28;5088182;28;20047;-65
2023/01/24 05:55:54;;;;;;;8.93;4.40;;;;;;;4.28;83.51;99519.69;5107223;27;20078;-66
2023/01/24 05:58:19;;;;;;;8.00;4.32;;;;;;;4.24;83.52;99526.75;5073899;28;20051;-66
2023/01/24 06:00:45;;;;;;;8.80;4.72;;;;;;;4.23;84.90;99532.78;5104586;27;20115;-66
2023/01/24 06:03:10;;;;;;;9.52;4.97;;;;;;;4.26;83.35;99527.50;5089879;28;20586;-68
2023/01/24 06:05:37;;;;;;;7.75;4.28;;;;;;;4.31;81.58;99546.09;5100065;27;20042;-66
2023/01/24 06:08:03;;;;;;;8.52;5.05;;;;;;;4.24;81.26;99544.78;5086001;28;20038;-66
2023/01/24 06:10:28;;;;;;;8.77;4.40;;;;;;;3.99;80.07;99502.28;5107129;27;20397;-66
2023/01/24 06:12:53;;;;;;;8.02;4.53;;;;;;;4.30;79.62;99551.34;5085971;28;20430;-68
2023/01/24 06:15:19;;;;;;;8.13;4.75;;;;;;;4.30;79.03;99553.91;5089916;27;20035;-68
2023/01/24 06:17:44;;;;;;;8.02;4.07;;;;;;;3.99;78.80;99510.00;5107622;27;20055;-67
2023/01/24 06:20:11;;;;;;;6.45;3.88;;;;;;;4.29;79.08;99554.81;5089820;28;20420;-66
2023/01/24 06:22:47;;;;;;;7.30;4.15;;;;;;;4.22;79.41;99552.56;5081155;28;20111;-67
2023/01/24 06:25:22;;;;;;;7.97;4.10;;;;;;;4.28;78.75;99556.56;5088199;28;20027;-68
2023/01/24 06:27:50;;;;;;;7.35;3.78;;;;;;;4.26;80.33;99560.97;5085284;28;20551;-66
2023/01/24 06:30:17;;;;;;;9.70;3.70;;;;;;;4.30;79.85;99557.31;5066550;27;20123;-67
2023/01/24 06:32:49;;;;;;;9.88;4.00;;;;;;;4.38;80.18;99562.88;5068594;28;20024;-66
2023/01/24 06:35:44;;;;;;;7.05;3.72;;;;;;;4.27;79.79;99560.06;5079989;28;20100;-67
2023/01/24 06:38:22;;;;;;;8.57;4.47;;;;;;;4.24;79.08;99562.78;5098608;27;20537;-67
2023/01/24 06:40:59;;;;;;;7.72;3.92;;;;;;;4.31;79.64;99566.69;5083668;27;20031;-66
2023/01/24 06:43:25;;;;;;;7.97;3.67;;;;;;;4.13;80.09;99531.63;5060799;28;20027;-66
2023/01/24 06:45:51;;;;;;;7.05;3.95;;;;;;;4.40;79.92;99579.09;5073123;27;20031;-67
2023/01/24 06:48:16;;;;;;;8.52;5.05;;;;;;;4.39;80.60;99579.16;5080317;28;20028;-67
2023/01/24 06:50:42;;;;;;;7.70;4.22;;;;;;;4.37;80.56;99579.25;5084218;27;20412;-66
2023/01/24 06:53:08;;;;;;;8.18;3.78;;;;;;;4.42;80.91;99581.59;5061728;28;20022;-66
2023/01/24 06:55:34;;;;;;;7.65;4.30;;;;;;;4.32;81.05;99590.69;5090851;28;20697;-68
2023/01/24 06:58:00;;;;;;;8.60;4.68;;;;;;;4.27;81.62;99590.97;5064565;28;20127;-67
2023/01/24 07:00:28;;;;;;;10.52;5.10;;;;;;;4.36;81.15;99593.03;5068250;27;20094;-66
2023/01/24 07:02:58;;;;;;;7.72;4.72;;;;;;;4.40;82.01;99596.28;5071429;28;20019;-68
2023/01/24 07:05:24;;;;;;;11.27;5.25;;;;;;;4.30;82.07;99595.94;5102755;27;20600;-68
2023/01/24 07:07:50;;;;;;;8.23;5.15;;;;;;;4.28;82.89;99589.22;5073543;28;20490;-68
2023/01/24 07:10:16;;;;;;;9.73;4.38;;;;;;;3.98;83.33;99549.53;5080916;28;20047;-67
2023/01/24 07:12:42;;;;;;;13.57;5.32;;;;;;;4.07;84.22;99596.28;5083005;28;20027;-68
2023/01/24 07:15:08;;;;;;;7.90;4.22;;;;;;;4.03;82.86;99596.47;5060719;28;20059;-66
2023/01/24 07:17:34;;;;;;;8.30;4.18;;;;;;;4.01;82.64;99600.84;5085295;28;20074;-68
2023/01/24 07:20:00;;;;;;;8.05;4.03;;;;;;;4.16;81.44;99598.38;5086262;28;20118;-66
2023/01/24 07:22:25;;;;;;;8.52;4.50;;;;;;;4.21;81.03;99604.13;5068105;28;20482;-68
2023/01/24 07:24:51;;;;;;;7.25;4.13;;;;;;;4.07;82.35;99588.56;5070499;28;20085;-65
2023/01/24 07:27:17;;;;;;;7.95;4.00;;;;;;;4.17;82.42;99612.94;5078827;28;20027;-66
2023/01/24 07:29:43;;;;;;;6.93;3.47;;;;;;;4.26;81.75;99607.31;5083683;28;20458;-67
2023/01/24 07:32:11;;;;;;;8.63;3.90;;;;;;;4.26;80.91;99607.31;5063612;28;20107;-66
2023/01/24 07:34:37;;;;;;;8.82;4.25;;;;;;;4.27;81.57;99605.56;5064522;28;20100;-65
2023/01/24 07:37:06;;;;;;;9.43;4.15;;;;;;;4.27;82.71;99601.25;5087025;27;20050;-68
2023/01/24 07:39:31;;;;;;;8.82;4.10;;;;;;;4.27;83.44;99608.13;5066247;28;20084;-67
2023/01/24 07:41:56;;;;;;;9.52;3.75;;;;;;;4.28;83.09;99612.38;5084667;27;20470;-67
2023/01/24 07:44:22;;;;;;;6.72;3.53;;;;;;;4.25;82.24;99615.94;5110755;27;20140;-67
2023/01/24 07:46:47;;;;;;;8.90;3.95;;;;;;;3.94;82.66;99585.78;5064361;28;20036;-66
2023/01/24 07:49:13;;;;;;;7.90;3.70;;;;;;;4.22;82.23;99618.69;5083357;28;20533;-65
2023/01/24 07:51:39;;;;;;;7.25;3.90;;;;;;;4.21;81.63;99625.56;5084498;28;20079;-68
2023/01/24 07:54:05;;;;;;;8.23;3.78;;;;;;;4.13;83.39;99616.59;5083322;28;20024;-67
2023/01/24 07:56:30;;;;;;;7.25;3.85;;;;;;;3.85;82.27;99574.22;5068498;28;20028;-69
2023/01/24 07:58:57;;;;;;;6.68;3.47;;;;;;;4.16;82.59;99626.69;5080192;28;20327;-65
2023/01/24 08:01:23;;;;;;;7.50;4.30;;;;;;;4.15;84.88;99620.72;5094921;27;20036;-67
2023/01/24 08:03:49;;;;;;;8.48;4.35;;;;;;;4.05;85.84;99627.25;5080852;28;20087;-68
2023/01/24 08:06:15;;;;;;;7.57;4.43;;;;;;;4.17;86.17;99631.78;5086665;28;20020;-64
2023/01/24 08:08:40;;;;;;;9.82;5.10;;;;;;;4.14;87.33;99620.81;5103648;27;20023;-64
2023/01/24 08:11:06;;;;;;;8.88;4.30;;;;;;;4.11;88.40;99620.97;5082091;28;20038;-66
2023/01/24 08:13:31;;;;;;;8.32;4.50;;;;;;;4.17;88.01;99629.19;5083395;28;20541;-64
2023/01/24 08:15:59;;;;;;;8.30;4.15;;;;;;;4.18;90.87;99630.03;5088116;28;20031;-65
2023/01/24 08:18:24;;;;;;;9.13;4.55;;;;;;;4.19;91.95;99618.84;5065570;28;20054;-63
2023/01/24 08:20:54;;;;;;;8.88;4.57;;;;;;;4.11;92.37;99621.81;5085827;28;20138;-64
2023/01/24 08:23:19;;;;;;;8.90;4.82;;;;;;;4.04;91.99;99629.00;5066429;28;20790;-64
2023/01/24 08:25:45;;;;;;;9.45;4.25;;;;;;;3.53;92.01;99540.69;5064670;28;20029;-64
2023/01/24 08:28:10;;;;;;;13.25;5.38;;;;;;;4.09;92.64;99633.94;5085572;28;20470;-66
2023/01/24 08:30:36;;;;;;;10.18;4.97;;;;;;;4.09;93.45;99649.38;5081734;28;20023;-66
2023/01/24 08:33:02;;;;;;;9.15;5.22;;;;;;;4.00;92.78;99645.50;5082268;28;20027;-66
2023/01/24 08:35:28;;;;;;;7.53;4.47;;;;;;;4.09;93.22;99656.25;5064822;28;20066;-66
2023/01/24 08:37:54;;;;;;;8.82;4.72;;;;;;;4.08;91.47;99657.16;5087255;28;20055;-66
2023/01/24 08:40:19;;;;;;;7.70;4.30;;;;;;;4.16;91.74;99675.63;5083599;28;20107;-65
2023/01/24 08:42:44;;;;;;;7.63;4.10;;;;;;;4.21;90.49;99674.47;5066777;28;20023;-63
2023/01/24 08:45:10;;;;;;;6.95;3.38;;;;;;;4.17;91.37;99672.97;5105540;28;20039;-66
2023/01/24 08:47:35;;;;;;;8.30;4.78;;;;;;;4.13;91.82;99673.22;5074200;28;20033;-65
2023/01/24 08:50:01;;;;;;;8.40;4.72;;;;;;;4.09;90.23;99658.81;5088243;28;20031;-64
2023/01/24 08:52:26;;;;;;;8.77;4.75;;;;;;;4.21;90.00;99678.78;5083518;28;20020;-65
2023/01/24 08:54:52;;;;;;;9.07;5.13;;;;;;;4.17;88.29;99683.25;5084553;28;20031;-66
2023/01/24 08:57:17;;;;;;;8.05;4.43;;;;;;;4.26;88.79;99678.56;5094935;28;20047;-64
2023/01/24 08:59:43;;;;;;;10.38;4.90;;;;;;;4.25;87.22;99685.44;5085461;28;20024;-64
2023/01/24 09:02:14;;;;;;;8.10;4.65;;;;;;;4.30;86.04;99685.22;5084646;28;20030;-65
2023/01/24 09:04:39;;;;;;;9.35;5.07;;;;;;;4.22;86.33;99676.16;5066532;28;20038;-63
2023/01/24 09:07:04;;;;;;;7.72;4.15;;;;;;;4.04;85.55;99644.44;5071205;28;20015;-63
2023/01/24 09:09:30;;;;;;;7.07;3.90;;;;;;;4.27;85.39;99681.06;5087533;28;20031;-63
2023/01/24 09:11:56;;;;;;;9.02;4.70;;;;;;;4.18;86.61;99648.91;5094418;28;20024;-64
2023/01/24 09:14:22;;;;;;;9.05;4.82;;;;;;;4.41;87.21;99681.16;5099756;28;20439;-63
2023/01/24 09:16:47;;;;;;;7.95;4.22;;;;;;;4.41;86.15;99683.75;5079592;28;20034;-63
2023/01/24 09:19:12;;;;;;;9.18;4.65;;;;;;;4.51;86.34;99698.72;5079386;28;20027;-63
2023/01/24 09:21:38;;;;;;;8.63;4.63;;;;;;;4.39;84.99;99675.28;5102333;28;20038;-63
2023/01/24 09:24:04;;;;;;;6.93;3.88;;;;;;;4.59;84.17;99696.59;5067064;28;20039;-63
2023/01/24 09:26:29;;;;;;;9.13;4.20;;;;;;;4.60;85.44;99683.63;5083518;28;20032;-65
2023/01/24 09:28:55;;;;;;;7.70;4.40;;;;;;;4.64;86.30;99689.47;5096058;28;20111;-63
2023/01/24 09:31:20;;;;;;;8.45;4.95;;;;;;;4.59;86.10;99696.59;5063657;28;20024;-63
2023/01/24 09:33:46;;;;;;;8.60;4.25;;;;;;;4.63;85.83;99692.94;5069817;28;20027;-63
2023/01/24 09:36:12;;;;;;;8.73;4.85;;;;;;;4.68;85.49;99695.28;5100373;28;20120;-64
2023/01/24 09:38:37;;;;;;;8.63;5.15;;;;;;;4.47;85.92;99653.44;5085412;28;20028;-63
2023/01/24 09:41:11;;;;;;;8.73;5.22;;;;;;;4.77;83.85;99684.50;5091758;27;20034;-63
2023/01/24 09:43:45;;;;;;;8.68;5.10;;;;;;;4.51;83.52;99634.31;5078304;28;20050;-67
2023/01/24 09:46:17;;;;;;;9.02;4.85;;;;;;;4.83;83.58;99689.31;5106792;27;20016;-64
2023/01/24 09:48:42;;;;;;;9.40;4.60;;;;;;;4.74;83.84;99680.31;5101568;27;20050;-64
2023/01/24 09:51:20;;;;;;;7.93;4.15;;;;;;;4.96;83.20;99687.72;5087010;28;20728;-63
2023/01/24 09:53:59;;;;;;;7.80;4.45;;;;;;;4.90;81.84;99659.72;5071662;28;20196;-62
2023/01/24 09:56:30;;;;;;;9.68;4.32;;;;;;;5.17;82.33;99680.59;5083986;28;20230;-62
2023/01/24 09:59:21;;;;;;;8.18;4.00;;;;;;;5.23;80.47;99682.00;5070532;28;20023;-62
2023/01/24 10:01:48;;;;;;;7.32;3.97;;;;;;;5.26;78.19;99675.84;5096831;28;20106;-62
2023/01/24 10:04:21;;;;;;;7.55;4.10;;;;;;;5.36;79.11;99674.41;5085477;28;20027;-64
2023/01/24 10:07:20;;;;;;;7.10;3.95;;;;;;;5.44;76.16;99679.13;5063587;28;20027;-64
2023/01/24 10:10:03;;;;;;;7.07;3.72;;;;;;;5.50;77.04;99683.97;5081526;27;20098;-62
2023/01/24 10:12:57;;;;;;;7.68;4.20;;;;;;;5.51;77.89;99680.44;5099450;27;20027;-63
2023/01/24 10:15:43;;;;;;;8.73;3.80;;;;;;;5.47;79.49;99687.53;5087289;28;20027;-62
2023/01/24 10:18:30;;;;;;;8.60;4.20;;;;;;;5.57;80.18;99687.88;5078414;28;20035;-61
2023/01/24 10:21:16;;;;;;;7.45;4.22;;;;;;;5.65;75.45;99683.09;5104283;27;20030;-62
2023/01/24 10:23:44;;;;;;;7.15;3.80;;;;;;;5.35;71.96;99626.34;5067485;27;20500;-61
2023/01/24 10:26:19;;;;;;;6.82;3.40;;;;;;;5.66;71.66;99678.75;5087393;28;20087;-61
2023/01/24 10:28:50;;;;;;;7.63;3.88;;;;;;;5.64;71.71;99675.44;5077441;28;20067;-61
2023/01/24 10:32:02;;;;;;;9.65;4.68;;;;;;;5.85;70.76;99670.78;5067319;28;20246;-63
2023/01/24 10:34:54;;;;;;;6.55;3.40;;;;;;;5.95;70.79;99667.63;5065200;28;20042;-60
2023/01/24 10:37:23;;;;;;;6.72;3.35;;;;;;;5.94;73.36;99658.19;5057758;28;20040;-61
2023/01/24 10:39:49;;;;;;;8.25;3.20;;;;;;;5.81;72.46;99631.44;5078778;28;20047;-62
2023/01/24 10:42:23;;;;;;;6.45;3.03;;;;;;;6.08;69.90;99667.75;5070414;28;20470;-61
2023/01/24 10:44:50;;;;;;;6.50;2.75;;;;;;;5.84;69.41;99617.50;5064160;28;20032;-63
2023/01/24 10:47:38;;;;;;;6.05;2.50;;;;;;;6.18;69.96;99662.84;5060804;28;20035;-62
2023/01/24 10:50:13;;;;;;;6.90;3.10;;;;;;;6.09;73.14;99661.63;5077918;28;20540;-64
2023/01/24 10:52:38;;;;;;;6.82;3.70;;;;;;;6.12;74.34;99671.78;5060234;28;20036;-62
2023/01/24 10:55:36;;;;;;;7.07;3.05;;;;;;;6.14;73.95;99662.19;5069553;28;20101;-64
2023/01/24 10:58:08;;;;;;;6.43;2.83;;;;;;;6.27;69.93;99674.41;5058941;28;20120;-63
2023/01/24 11:00:35;;;;;;;5.85;2.80;;;;;;;6.35;68.16;99670.44;5072571;28;20346;-63
2023/01/24 11:03:16;;;;;;;6.53;2.67;;;;;;;6.29;67.68;99665.63;5067130;28;20028;-64
2023/01/24 11:05:46;;;;;;;5.90;2.67;;;;;;;6.38;68.78;99676.34;5068525;28;20070;-63
2023/01/24 11:08:20;;;;;;;5.15;2.55;;;;;;;6.12;67.53;99616.75;5051492;28;20103;-62
2023/01/24 11:10:46;;;;;;;5.88;2.50;;;;;;;6.40;66.08;99657.22;5070474;28;20058;-63
2023/01/24 11:13:45;;;;;;;6.13;2.67;;;;;;;6.50;65.60;99660.09;5065644;28;20694;-61
2023/01/24 11:16:17;;;;;;;6.68;2.63;;;;;;;6.49;65.18;99651.50;5067474;27;20039;-62
2023/01/24 11:18:56;;;;;;;6.13;2.90;;;;;;;6.46;66.30;99658.59;5081241;28;20496;-62
2023/01/24 11:21:21;;;;;;;5.53;2.70;;;;;;;6.46;65.51;99637.94;5053409;28;20701;-63
2023/01/24 11:24:16;;;;;;;6.15;3.00;;;;;;;6.56;65.96;99639.06;5072691;28;20031;-62
2023/01/24 11:27:12;;;;;;;6.32;2.30;;;;;;;6.81;63.55;99642.69;5077405;28;20393;-62
2023/01/24 11:29:38;;;;;;;5.57;2.30;;;;;;;6.91;63.10;99638.63;5069376;28;20023;-62
2023/01/24 11:32:21;;;;;;;4.63;2.05;;;;;;;7.00;63.49;99634.63;5049805;28;20097;-62
2023/01/24 11:35:05;;;;;;;6.30;2.20;;;;;;;6.92;61.90;99624.78;5063085;28;20097;-63
2023/01/24 11:37:39;;;;;;;4.47;1.52;;;;;;;6.86;60.33;99614.81;5084150;28;20031;-62
2023/01/24 11:40:36;;;;;;;6.07;2.03;;;;;;;6.96;59.39;99618.47;5065853;28;20039;-62
2023/01/24 11:43:33;;;;;;;8.18;2.20;;;;;;;7.12;60.50;99611.41;5048998;28;20036;-64
2023/01/24 11:46:31;;;;;;;5.68;2.35;;;;;;;7.19;59.46;99614.44;5075983;28;20138;-60
2023/01/24 11:49:04;;;;;;;4.97;2.08;;;;;;;7.19;59.44;99603.25;5071632;28;20036;-60
2023/01/24 11:51:44;;;;;;;5.20;1.80;;;;;;;7.30;59.01;99605.97;5070324;28;20476;-62
2023/01/24 11:54:27;;;;;;;3.55;1.30;;;;;;;7.44;57.83;99598.13;5083616;28;20028;-62
2023/01/24 11:56:56;;;;;;;4.05;1.50;;;;;;;7.66;56.40;99597.53;5069107;28;20028;-62
2023/01/24 11:59:47;;;;;;;6.55;1.55;;;;;;;7.76;55.93;99584.81;5073756;28;20035;-60
2023/01/24 12:02:50;;;;;;;4.47;1.50;;;;;;;7.91;55.42;99585.56;5084450;28;20058;-62
2023/01/24 12:05:37;;;;;;;3.67;1.40;;;;;;;7.74;54.07;99544.41;5064096;28;20035;-61
2023/01/24 12:08:21;;;;;;;3.75;1.27;;;;;;;8.00;53.97;99589.28;5061763;28;20031;-62
2023/01/24 12:10:56;;;;;;;4.28;1.20;;;;;;;7.94;53.81;99574.16;5085768;28;20111;-61
2023/01/24 12:13:44;;;;;;;3.55;1.30;;;;;;;7.95;53.75;99571.47;5066649;28;20035;-62
2023/01/24 12:16:42;;;;;;;3.38;1.10;;;;;;;7.89;53.24;99570.13;5085722;28;20104;-63
2023/01/24 12:19:26;;;;;;;3.20;1.10;;;;;;;8.01;52.87;99539.97;5069214;28;20032;-64
2023/01/24 12:21:57;;;;;;;3.22;1.10;;;;;;;8.14;53.74;99547.72;5050978;28;20119;-64
2023/01/24 12:24:35;;;;;;;4.85;1.30;;;;;;;8.14;52.55;99546.88;5070207;28;20051;-64
2023/01/24 12:27:03;;;;;;;5.13;1.27;;;;;;;8.14;52.25;99555.50;5056733;28;20332;-62
2023/01/24 12:29:48;;;;;;;3.50;1.30;;;;;;;8.17;52.70;99546.69;5051940;28;20027;-63
2023/01/24 12:32:31;;;;;;;3.83;1.45;;;;;;;8.23;52.49;99544.50;5064371;28;20032;-62